This is the latest recevied weather packets stored in our database for station/object HP1COO-13. If no packets are shown the sender has not sent any weather packets the latest 10 day(s).
| Time | Temp. | Humidity | Pressure | Rain* | Wind** | Luminosity | Snow |
|---|---|---|---|---|---|---|---|
| 1777467024 | 29.44° C | 78% | 1008.1 hPa | 0 mm | - | - | - |
| 1777466421 | 28.89° C | 80% | 1008 hPa | 0 mm | - | - | - |
| 1777463430 | 26.67° C | 91% | 1007.4 hPa | 0 mm | - | - | - |
| 1777462828 | 26.11° C | 93% | 1007.4 hPa | 0 mm | - | - | - |
| 1777457428 | 25.56° C | 94% | 1006.8 hPa | 0 mm | - | - | - |
| 1777455621 | 25.56° C | 93% | 1006.6 hPa | 0 mm | - | - | - |
| 1777453232 | 26.11° C | 91% | 1006.8 hPa | 0 mm | - | - | - |
| 1777452027 | 26.11° C | 90% | 1006.9 hPa | 0 mm | - | - | - |
| 1777446627 | 26.67° C | 89% | 1008.2 hPa | 0 mm | - | - | - |
| 1777446024 | 26.67° C | 89% | 1008.1 hPa | 0 mm | - | - | - |
| 1777445421 | 26.67° C | 88% | 1008.3 hPa | 0 mm | - | - | - |
| 1777444257 | 26.67° C | 87% | 1008.4 hPa | 0 mm | - | - | - |
| 1777441828 | 26.67° C | 87% | 1008.9 hPa | 0 mm | - | - | - |
| 1777440643 | 27.22° C | 87% | 1009.1 hPa | 0 mm | - | - | - |
| 1777438234 | 27.22° C | 86% | 1009.2 hPa | 0 mm | - | - | - |
| 1777436427 | 27.22° C | 85% | 1009.3 hPa | 0 mm | - | - | - |
| 1777432834 | 27.78° C | 83% | 1009.4 hPa | 0 mm | - | - | - |
| 1777429220 | 27.78° C | 80% | 1009 hPa | 0 mm | - | - | - |
| 1777427433 | 27.78° C | 79% | 1008.6 hPa | 0 mm | - | - | - |
| 1777422033 | 29.44° C | 73% | 1007.7 hPa | 0 mm | - | - | - |
| 1777421431 | 29.44° C | 72% | 1007.7 hPa | 0 mm | - | - | - |
| 1777414224 | 32.78° C | 58% | 1006.4 hPa | 0 mm | - | - | - |
| 1777413623 | 33.33° C | 56% | 1006.4 hPa | 0 mm | - | - | - |
| 1777404627 | 35.56° C | 52% | 1006.9 hPa | 0 mm | - | - | - |
| 1777401616 | 34.44° C | 54% | 1008 hPa | 0 mm | - | - | - |
* Rain latest hour (hover to see other rain measurements)
** Current wind speed in m/s (hover to see current wind gust speed)